Time;durP1;ratioP1;P1;durP2;ratioP2;P2;SDS_P1;SDS_P2;PMS_P1;PMS_P2;Temp;Humidity;BMP_temperature;BMP_pressure;BME280_temperature;BME280_humidity;BME280_pressure;Samples;Min_cycle;Max_cycle;Signal;HPM_P1;HPM_P2
2023/04/30 00:01:54;;;;;;;22.70;16.58;;;14.70;99.90;;;;;;5080309;28;20272;-70
2023/04/30 00:04:43;;;;;;;23.13;17.00;;;14.80;99.90;;;;;;5075573;28;20219;-70
2023/04/30 00:07:32;;;;;;;20.25;16.35;;;14.80;99.90;;;;;;5068110;28;20227;-71
2023/04/30 00:10:23;;;;;;;25.02;17.25;;;14.80;99.90;;;;;;5077630;28;20810;-70
2023/04/30 00:13:12;;;;;;;22.15;16.75;;;14.90;99.90;;;;;;5072455;28;20245;-70
2023/04/30 00:16:02;;;;;;;22.38;16.45;;;14.90;99.90;;;;;;5077616;28;20718;-70
2023/04/30 00:18:51;;;;;;;22.98;16.50;;;14.90;99.90;;;;;;5078724;28;20227;-69
2023/04/30 00:21:40;;;;;;;24.35;16.95;;;14.80;99.90;;;;;;5069076;28;20240;-70
2023/04/30 00:24:29;;;;;;;22.77;17.50;;;14.90;99.90;;;;;;5076918;28;20718;-70
2023/04/30 00:27:20;;;;;;;23.60;17.73;;;14.90;99.90;;;;;;5076746;28;20216;-70
2023/04/30 00:30:09;;;;;;;23.75;18.13;;;14.80;99.90;;;;;;5094566;27;20297;-69
2023/04/30 00:32:58;;;;;;;21.38;17.52;;;14.90;99.90;;;;;;5076832;28;20217;-69
2023/04/30 00:35:47;;;;;;;21.75;17.67;;;14.90;99.90;;;;;;5102929;27;20234;-69
2023/04/30 00:38:36;;;;;;;20.85;17.63;;;14.90;99.90;;;;;;5066404;28;20231;-70
2023/04/30 00:41:26;;;;;;;24.30;18.15;;;14.90;99.90;;;;;;5071706;28;20226;-71
2023/04/30 00:44:16;;;;;;;23.08;17.30;;;14.90;99.90;;;;;;5075395;28;20737;-70
2023/04/30 00:47:05;;;;;;;24.30;18.20;;;14.90;99.90;;;;;;5103235;27;20258;-70
2023/04/30 00:49:54;;;;;;;21.58;17.33;;;14.90;99.90;;;;;;5097919;27;20680;-71
2023/04/30 00:52:44;;;;;;;21.23;18.02;;;14.90;99.90;;;;;;5076953;28;20268;-71
2023/04/30 00:55:33;;;;;;;25.25;17.83;;;14.70;99.90;;;;;;5069087;28;20224;-72
2023/04/30 00:58:22;;;;;;;22.92;18.95;;;14.70;99.90;;;;;;5070373;28;20308;-71
2023/04/30 01:01:13;;;;;;;23.13;19.00;;;14.80;99.90;;;;;;5093826;27;20238;-70
2023/04/30 01:04:02;;;;;;;23.73;18.60;;;14.80;99.90;;;;;;5074154;28;20211;-69
2023/04/30 01:06:51;;;;;;;23.00;17.98;;;14.80;99.90;;;;;;5066386;28;20310;-72
2023/04/30 01:09:40;;;;;;;24.95;18.77;;;14.70;99.90;;;;;;5072142;28;20913;-71
2023/04/30 01:12:39;;;;;;;24.85;19.10;;;14.60;99.90;;;;;;5076079;28;20370;-70
2023/04/30 01:15:41;;;;;;;23.85;18.85;;;14.60;99.90;;;;;;5099599;27;20219;-70
2023/04/30 01:18:39;;;;;;;25.63;18.90;;;14.50;99.90;;;;;;5078174;28;20226;-71
2023/04/30 01:21:32;;;;;;;22.67;19.02;;;14.50;99.90;;;;;;5072579;28;20698;-71
2023/04/30 01:24:35;;;;;;;22.23;18.85;;;14.40;99.90;;;;;;5068401;28;20219;-71
2023/04/30 01:27:40;;;;;;;24.88;18.77;;;14.50;99.90;;;;;;5071635;28;20222;-71
2023/04/30 01:30:32;;;;;;;25.15;19.67;;;14.50;99.90;;;;;;5072881;28;20280;-71
2023/04/30 01:33:20;;;;;;;21.90;18.08;;;14.40;99.90;;;;;;5076209;28;20298;-70
2023/04/30 01:36:24;;;;;;;23.33;18.55;;;14.40;99.90;;;;;;5081440;28;20215;-71
2023/04/30 01:39:29;;;;;;;20.60;17.95;;;14.40;99.90;;;;;;5076135;28;20211;-71
2023/04/30 01:42:22;;;;;;;22.92;18.20;;;14.40;99.90;;;;;;5084526;27;20223;-71
2023/04/30 01:45:27;;;;;;;21.67;18.65;;;14.30;99.90;;;;;;5072357;28;20223;-70
2023/04/30 01:48:38;;;;;;;22.73;17.17;;;14.40;99.90;;;;;;5080662;28;20332;-70
2023/04/30 01:51:35;;;;;;;19.15;16.80;;;14.30;99.90;;;;;;5075728;28;20621;-71
2023/04/30 01:54:30;;;;;;;20.52;17.20;;;14.30;99.90;;;;;;5090942;27;20225;-65
2023/04/30 01:57:25;;;;;;;20.83;17.65;;;14.20;99.90;;;;;;5080672;28;20255;-70
2023/04/30 02:00:16;;;;;;;19.23;17.10;;;14.40;99.90;;;;;;5071975;28;20226;-71
2023/04/30 02:03:05;;;;;;;21.10;16.30;;;14.30;99.90;;;;;;5085458;27;20265;-70
2023/04/30 02:05:57;;;;;;;22.00;16.70;;;14.40;99.90;;;;;;5072167;28;20390;-70
2023/04/30 02:08:46;;;;;;;26.38;17.67;;;14.40;99.90;;;;;;5079796;28;20236;-69
2023/04/30 02:11:35;;;;;;;20.48;16.77;;;14.40;99.90;;;;;;5082001;28;20220;-70
2023/04/30 02:14:24;;;;;;;18.48;15.60;;;14.50;99.90;;;;;;5079047;28;20226;-70
2023/04/30 02:17:13;;;;;;;18.98;16.20;;;14.40;99.90;;;;;;5081629;28;20227;-70
2023/04/30 02:20:03;;;;;;;18.83;15.90;;;14.40;99.90;;;;;;5084741;28;20783;-70
2023/04/30 02:22:53;;;;;;;19.27;15.73;;;14.30;99.90;;;;;;5078759;28;20315;-69
2023/04/30 02:25:43;;;;;;;18.23;15.48;;;14.40;99.90;;;;;;5103484;27;21176;-70
2023/04/30 02:28:32;;;;;;;17.08;15.07;;;14.50;99.90;;;;;;5077001;28;20228;-71
2023/04/30 02:31:21;;;;;;;17.50;15.68;;;14.40;99.90;;;;;;5074954;28;20711;-71
2023/04/30 02:34:10;;;;;;;18.13;14.65;;;14.30;99.90;;;;;;5080262;28;20224;-69
2023/04/30 02:36:59;;;;;;;18.92;15.80;;;14.30;99.90;;;;;;5083274;28;20349;-69
2023/04/30 02:39:50;;;;;;;17.98;15.13;;;14.40;99.90;;;;;;5103783;27;20614;-71
2023/04/30 02:42:39;;;;;;;16.25;14.40;;;14.30;99.90;;;;;;5083750;28;20297;-69
2023/04/30 02:45:27;;;;;;;18.90;15.43;;;14.30;99.90;;;;;;5074556;28;20228;-72
2023/04/30 02:48:16;;;;;;;17.05;14.75;;;14.40;99.90;;;;;;5081498;28;20694;-69
2023/04/30 02:51:06;;;;;;;17.15;15.00;;;14.30;99.90;;;;;;5082323;28;20230;-71
2023/04/30 02:53:54;;;;;;;18.70;13.85;;;14.40;99.90;;;;;;5078583;28;20244;-69
2023/04/30 02:56:45;;;;;;;19.23;15.20;;;14.30;99.90;;;;;;5082813;28;20309;-70
2023/04/30 02:59:33;;;;;;;17.77;14.55;;;14.30;99.90;;;;;;5075599;28;20227;-71
2023/04/30 03:02:22;;;;;;;18.10;14.35;;;14.30;99.90;;;;;;5071347;28;20449;-70
2023/04/30 03:05:13;;;;;;;17.27;14.43;;;14.10;99.90;;;;;;5077452;28;20300;-70
2023/04/30 03:08:02;;;;;;;19.90;15.57;;;14.00;99.90;;;;;;5079818;28;20230;-70
2023/04/30 03:10:51;;;;;;;20.02;15.70;;;13.80;99.90;;;;;;5070096;28;20223;-72
2023/04/30 03:13:42;;;;;;;16.27;14.32;;;13.70;99.90;;;;;;5066843;28;20232;-70
2023/04/30 03:16:31;;;;;;;20.05;15.55;;;13.80;99.90;;;;;;5069147;28;20227;-71
2023/04/30 03:19:23;;;;;;;16.20;14.50;;;13.80;99.90;;;;;;5074365;28;20227;-70
2023/04/30 03:22:13;;;;;;;17.60;14.18;;;13.70;99.90;;;;;;5070331;28;20215;-69
2023/04/30 03:25:02;;;;;;;16.65;14.32;;;13.70;99.90;;;;;;5101388;28;20231;-71
2023/04/30 03:27:51;;;;;;;17.10;13.57;;;13.60;99.90;;;;;;5030160;28;1157114;-70
2023/04/30 03:30:41;;;;;;;15.52;13.00;;;13.60;99.90;;;;;;5072312;28;20223;-70
2023/04/30 03:33:30;;;;;;;15.13;13.32;;;13.60;99.90;;;;;;5075652;28;20349;-70
2023/04/30 03:36:19;;;;;;;13.45;12.05;;;13.40;99.90;;;;;;5065787;28;20737;-70
2023/04/30 03:39:09;;;;;;;16.83;12.77;;;13.30;99.90;;;;;;5081609;28;20242;-70
2023/04/30 03:41:58;;;;;;;13.95;12.38;;;13.30;99.90;;;;;;5070485;28;21398;-70
2023/04/30 03:44:51;;;;;;;18.45;12.77;;;13.40;99.90;;;;;;5069100;28;20975;-71
2023/04/30 03:50:45;;;;;;;17.13;13.77;;;13.40;99.90;;;;;;5071968;28;20241;-70
2023/04/30 03:53:33;;;;;;;15.13;13.35;;;13.40;99.90;;;;;;5101640;27;20222;-70
2023/04/30 03:56:24;;;;;;;15.30;11.82;;;13.40;99.90;;;;;;5077350;28;20287;-70
2023/04/30 03:59:13;;;;;;;13.52;11.73;;;13.00;99.90;;;;;;5077753;28;20228;-70
2023/04/30 04:02:02;;;;;;;12.57;10.32;;;13.10;99.90;;;;;;5084482;28;20258;-75
2023/04/30 04:04:53;;;;;;;14.13;10.05;;;12.90;99.90;;;;;;5067634;28;20224;-69
2023/04/30 04:07:42;;;;;;;14.02;9.68;;;12.90;99.90;;;;;;5070017;28;20230;-70
2023/04/30 04:10:31;;;;;;;11.73;9.38;;;12.80;99.90;;;;;;5076683;28;20241;-69
2023/04/30 04:13:20;;;;;;;13.88;9.40;;;12.60;99.90;;;;;;5068261;28;20327;-68
2023/04/30 04:16:08;;;;;;;9.55;8.30;;;12.50;99.90;;;;;;5074824;28;20715;-69
2023/04/30 04:18:57;;;;;;;8.63;7.60;;;12.30;99.90;;;;;;5075812;28;20374;-69
2023/04/30 04:21:48;;;;;;;9.23;7.07;;;12.30;99.90;;;;;;5077368;28;20238;-70
2023/04/30 04:24:38;;;;;;;10.50;7.07;;;12.20;99.90;;;;;;5103401;27;20662;-70
2023/04/30 04:27:27;;;;;;;10.18;7.20;;;12.20;99.90;;;;;;5070867;28;21041;-70
2023/04/30 04:30:16;;;;;;;11.75;7.35;;;12.30;99.90;;;;;;5069485;28;20226;-71
2023/04/30 04:33:05;;;;;;;10.98;6.80;;;12.40;99.90;;;;;;5085141;27;20215;-71
2023/04/30 04:35:56;;;;;;;11.85;7.00;;;12.40;99.90;;;;;;5073461;28;20251;-71
2023/04/30 04:38:50;;;;;;;9.25;6.63;;;12.60;99.90;;;;;;5072278;28;20842;-71
2023/04/30 04:41:38;;;;;;;7.90;6.30;;;12.50;99.90;;;;;;5076976;28;21031;-70
2023/04/30 04:44:28;;;;;;;9.40;6.70;;;12.20;99.90;;;;;;5071114;28;21140;-70
2023/04/30 04:47:18;;;;;;;7.72;6.43;;;12.30;99.90;;;;;;5077887;28;20280;-68
2023/04/30 04:50:08;;;;;;;9.40;6.45;;;12.40;99.90;;;;;;5073172;28;20224;-68
2023/04/30 04:52:57;;;;;;;9.43;6.47;;;12.50;99.90;;;;;;5070464;28;20242;-69
2023/04/30 04:55:47;;;;;;;7.93;5.90;;;12.50;99.90;;;;;;5070221;28;20353;-69
2023/04/30 04:58:36;;;;;;;11.20;6.55;;;12.70;99.90;;;;;;5073032;28;20965;-69
2023/04/30 05:01:25;;;;;;;10.38;6.07;;;12.70;99.90;;;;;;5073879;28;20709;-68
2023/04/30 05:04:15;;;;;;;6.63;5.90;;;12.70;99.90;;;;;;5069430;28;20212;-67
2023/04/30 05:07:06;;;;;;;9.85;6.40;;;12.90;99.90;;;;;;5069361;28;20219;-69
2023/04/30 05:09:55;;;;;;;10.88;7.57;;;12.90;99.90;;;;;;5066680;28;20230;-70
2023/04/30 05:12:46;;;;;;;11.68;7.65;;;12.80;99.90;;;;;;5063750;28;20235;-70
2023/04/30 05:15:35;;;;;;;10.57;7.07;;;12.80;99.90;;;;;;5068541;28;20235;-68
2023/04/30 05:18:24;;;;;;;10.23;7.38;;;12.90;99.90;;;;;;5071605;28;20231;-68
2023/04/30 05:21:12;;;;;;;8.85;7.00;;;12.90;99.90;;;;;;5088180;28;20742;-67
2023/04/30 05:24:01;;;;;;;11.40;7.93;;;13.00;99.90;;;;;;5068861;28;20227;-67
2023/04/30 05:26:53;;;;;;;12.57;8.60;;;12.80;99.90;;;;;;5089261;28;20224;-70
2023/04/30 05:29:43;;;;;;;11.48;8.10;;;12.90;99.90;;;;;;5076874;28;20228;-71
2023/04/30 05:32:32;;;;;;;15.13;8.25;;;13.00;99.90;;;;;;5068501;28;20686;-71
2023/04/30 05:35:21;;;;;;;11.15;8.60;;;13.00;99.90;;;;;;5073288;28;20223;-72
2023/04/30 05:38:10;;;;;;;16.05;9.15;;;13.10;99.90;;;;;;5075586;28;20222;-68
2023/04/30 05:41:00;;;;;;;17.98;10.50;;;13.00;99.90;;;;;;5093827;28;20775;-68
2023/04/30 05:43:49;;;;;;;10.95;9.80;;;12.70;99.90;;;;;;5071414;28;20230;-70
2023/04/30 05:46:39;;;;;;;15.48;11.13;;;12.70;99.90;;;;;;5067343;28;20248;-68
2023/04/30 05:49:28;;;;;;;15.50;11.27;;;12.60;99.90;;;;;;5074218;28;20702;-70
2023/04/30 05:52:17;;;;;;;13.18;10.57;;;12.70;99.90;;;;;;5068620;28;20832;-67
2023/04/30 05:55:07;;;;;;;15.57;10.70;;;12.80;99.90;;;;;;5069405;28;20669;-68
2023/04/30 05:57:55;;;;;;;14.23;10.88;;;13.00;99.90;;;;;;5067657;28;20226;-70
2023/04/30 06:00:48;;;;;;;14.10;10.80;;;13.20;99.90;;;;;;5066883;28;20215;-74
2023/04/30 06:03:39;;;;;;;15.02;11.07;;;13.30;99.90;;;;;;5064630;28;20231;-72
2023/04/30 06:06:27;;;;;;;14.75;11.63;;;13.30;99.90;;;;;;5073072;28;20217;-71
2023/04/30 06:09:16;;;;;;;13.75;10.93;;;13.40;99.90;;;;;;5075993;28;20219;-72
2023/04/30 06:12:06;;;;;;;13.30;10.65;;;13.60;99.90;;;;;;5070991;28;20228;-72
2023/04/30 06:14:55;;;;;;;14.45;11.18;;;13.70;99.90;;;;;;5071263;28;20364;-71
2023/04/30 06:17:44;;;;;;;15.15;10.82;;;13.90;99.90;;;;;;5070605;28;20358;-71
2023/04/30 06:20:34;;;;;;;16.20;10.75;;;13.80;99.90;;;;;;5074387;28;20603;-72
2023/04/30 06:23:23;;;;;;;13.77;10.10;;;14.10;99.90;;;;;;5101445;27;20314;-71
2023/04/30 06:26:13;;;;;;;13.25;10.80;;;14.20;99.90;;;;;;5089028;28;20490;-72
2023/04/30 06:29:03;;;;;;;15.27;11.00;;;14.10;99.90;;;;;;5072452;28;20308;-72
2023/04/30 06:31:52;;;;;;;17.13;10.93;;;14.00;99.90;;;;;;5080799;28;20782;-72
2023/04/30 06:34:41;;;;;;;15.82;10.45;;;14.10;99.90;;;;;;5070002;28;20734;-71
2023/04/30 06:37:36;;;;;;;13.57;10.32;;;13.90;99.90;;;;;;5103938;27;20405;-72
2023/04/30 06:40:25;;;;;;;13.25;9.68;;;14.40;99.90;;;;;;5070514;27;20227;-70
2023/04/30 06:43:14;;;;;;;17.23;9.73;;;14.80;99.90;;;;;;5077388;28;20219;-72
2023/04/30 06:46:03;;;;;;;15.70;9.75;;;14.60;99.90;;;;;;5089450;27;20631;-72
2023/04/30 06:48:52;;;;;;;13.05;9.05;;;14.30;99.90;;;;;;5075583;28;20228;-72
2023/04/30 06:51:41;;;;;;;9.68;7.32;;;13.90;99.90;;;;;;5078771;28;20247;-71
2023/04/30 06:54:32;;;;;;;11.48;7.97;;;13.40;99.90;;;;;;5070697;28;20231;-70
2023/04/30 06:57:20;;;;;;;14.38;10.57;;;13.50;99.90;;;;;;5071520;28;20230;-71
2023/04/30 07:00:10;;;;;;;13.77;10.38;;;14.00;99.90;;;;;;5083296;28;20361;-71
2023/04/30 07:03:01;;;;;;;13.98;9.85;;;14.60;99.90;;;;;;5075946;28;20311;-71
2023/04/30 07:05:50;;;;;;;11.40;8.60;;;15.40;99.90;;;;;;5078020;28;20334;-73
2023/04/30 07:08:40;;;;;;;11.63;8.27;;;16.10;99.90;;;;;;5080657;28;20256;-72
2023/04/30 07:11:34;;;;;;;14.05;6.20;;;16.40;99.90;;;;;;5073513;28;20670;-68
2023/04/30 07:14:23;;;;;;;8.32;5.93;;;16.10;99.90;;;;;;5074744;28;20270;-68
2023/04/30 07:17:12;;;;;;;9.77;5.70;;;16.80;99.90;;;;;;5076286;28;20231;-68
2023/04/30 07:20:01;;;;;;;9.80;5.18;;;16.80;99.90;;;;;;5072260;28;20220;-69
2023/04/30 07:22:49;;;;;;;10.00;5.18;;;16.80;99.90;;;;;;5078290;28;20228;-68
2023/04/30 07:25:38;;;;;;;10.30;5.45;;;16.50;99.90;;;;;;5072575;28;20224;-69
2023/04/30 07:28:28;;;;;;;10.52;5.50;;;16.90;99.90;;;;;;5064534;27;20594;-69
2023/04/30 07:31:18;;;;;;;9.85;5.22;;;17.20;99.30;;;;;;5081961;27;20346;-69
2023/04/30 07:34:07;;;;;;;10.60;5.47;;;17.40;99.30;;;;;;5076043;28;20234;-69
2023/04/30 07:36:56;;;;;;;10.93;5.72;;;18.10;98.30;;;;;;5072572;28;20232;-70
2023/04/30 07:39:45;;;;;;;5.78;3.97;;;17.60;98.60;;;;;;5070996;28;20724;-69
2023/04/30 07:42:34;;;;;;;7.25;4.22;;;17.10;97.70;;;;;;5076136;28;20285;-70
2023/04/30 07:45:24;;;;;;;7.20;3.83;;;17.10;96.40;;;;;;5071931;28;20240;-68
2023/04/30 07:48:12;;;;;;;7.57;4.00;;;17.70;96.50;;;;;;5091012;27;20220;-71
2023/04/30 07:51:03;;;;;;;8.80;4.00;;;18.10;94.90;;;;;;5069481;28;20231;-69
2023/04/30 07:53:52;;;;;;;7.38;3.78;;;18.30;94.90;;;;;;5079296;28;20234;-70
2023/04/30 07:56:41;;;;;;;7.13;4.20;;;18.00;93.80;;;;;;5076911;28;20231;-69
2023/04/30 07:59:30;;;;;;;8.00;3.92;;;18.30;93.60;;;;;;5068980;28;20813;-69
2023/04/30 08:02:20;;;;;;;7.10;3.75;;;19.00;93.90;;;;;;5080661;28;20227;-69
2023/04/30 08:05:10;;;;;;;6.85;3.95;;;19.40;91.60;;;;;;5071447;28;20227;-71
2023/04/30 08:07:58;;;;;;;9.43;4.32;;;19.70;90.70;;;;;;5072114;28;20227;-69
2023/04/30 08:10:47;;;;;;;8.35;3.90;;;20.10;90.20;;;;;;5076371;28;20259;-69
2023/04/30 08:13:36;;;;;;;6.43;3.67;;;20.50;90.50;;;;;;5064224;28;20221;-69
2023/04/30 08:16:24;;;;;;;6.13;3.78;;;20.50;86.50;;;;;;5075914;28;20246;-69
2023/04/30 08:19:15;;;;;;;5.70;3.42;;;20.20;82.70;;;;;;5073813;28;20331;-68
2023/04/30 08:22:04;;;;;;;6.85;4.30;;;20.60;84.30;;;;;;5082615;28;20223;-71
2023/04/30 08:24:54;;;;;;;7.07;3.85;;;20.60;80.90;;;;;;5081722;28;20265;-69
2023/04/30 08:27:43;;;;;;;9.13;4.30;;;21.10;82.40;;;;;;5076683;28;20243;-69
2023/04/30 08:30:32;;;;;;;9.30;3.63;;;21.70;80.00;;;;;;5082536;28;20726;-70
2023/04/30 08:33:20;;;;;;;9.40;3.50;;;21.60;78.80;;;;;;5071744;28;20220;-71
2023/04/30 08:36:10;;;;;;;5.70;3.60;;;21.90;77.60;;;;;;5074632;28;20223;-70
2023/04/30 08:39:00;;;;;;;7.18;3.22;;;22.20;76.70;;;;;;5081778;28;20212;-68
2023/04/30 08:41:54;;;;;;;6.40;3.50;;;22.30;73.80;;;;;;5070532;28;20227;-69
2023/04/30 08:44:45;;;;;;;5.97;3.53;;;22.50;73.50;;;;;;5079473;28;20234;-69
2023/04/30 08:47:34;;;;;;;4.68;3.28;;;22.30;73.70;;;;;;5082282;28;20258;-69
2023/04/30 08:50:23;;;;;;;7.38;3.22;;;22.80;71.80;;;;;;5076797;28;20230;-69
2023/04/30 08:53:16;;;;;;;4.32;3.30;;;22.70;69.80;;;;;;5079554;28;20256;-70
2023/04/30 08:56:05;;;;;;;5.50;3.35;;;22.80;69.30;;;;;;5075112;28;20228;-73
2023/04/30 08:58:54;;;;;;;6.57;3.03;;;22.60;67.40;;;;;;5097169;28;20284;-69
2023/04/30 09:01:42;;;;;;;6.78;2.95;;;22.50;65.10;;;;;;5073290;28;20279;-70
2023/04/30 09:04:32;;;;;;;8.73;3.10;;;22.90;65.00;;;;;;5080047;28;20234;-71
2023/04/30 09:07:24;;;;;;;6.88;2.90;;;23.00;63.30;;;;;;5079725;28;20238;-70
2023/04/30 09:10:18;;;;;;;5.55;2.70;;;22.80;62.10;;;;;;5079174;28;20877;-69
2023/04/30 09:13:08;;;;;;;7.38;3.20;;;23.10;61.30;;;;;;5077796;28;20236;-69
2023/04/30 09:16:00;;;;;;;6.85;2.40;;;23.40;57.40;;;;;;5072914;28;20263;-71
2023/04/30 09:18:49;;;;;;;5.53;2.78;;;23.50;55.60;;;;;;5081422;28;20353;-67
2023/04/30 09:21:38;;;;;;;4.47;2.80;;;24.20;55.50;;;;;;5078461;28;20721;-69
2023/04/30 09:24:27;;;;;;;6.25;3.00;;;24.80;54.80;;;;;;5078779;28;20694;-69
2023/04/30 09:27:22;;;;;;;5.50;3.10;;;24.70;53.70;;;;;;5077990;28;20232;-69
2023/04/30 09:30:31;;;;;;;4.68;2.88;;;24.90;53.60;;;;;;5064448;28;20223;-70
2023/04/30 09:33:20;;;;;;;10.55;3.40;;;25.30;53.20;;;;;;5066570;28;20798;-69
2023/04/30 09:36:10;;;;;;;5.15;2.95;;;26.10;52.10;;;;;;5067346;28;20228;-70
2023/04/30 09:39:07;;;;;;;6.50;3.03;;;26.50;51.70;;;;;;5073714;28;20227;-69
2023/04/30 09:42:08;;;;;;;5.03;2.90;;;26.40;50.00;;;;;;5060434;28;20816;-70
2023/04/30 09:44:59;;;;;;;5.72;3.05;;;27.10;51.20;;;;;;5077364;28;20246;-69
2023/04/30 09:47:48;;;;;;;3.20;2.40;;;27.10;49.40;;;;;;5055819;28;20744;-70
2023/04/30 09:50:40;;;;;;;7.32;3.25;;;26.90;46.90;;;;;;5071166;28;20233;-69
2023/04/30 09:53:31;;;;;;;5.25;2.65;;;28.00;45.70;;;;;;5073889;28;20228;-70
2023/04/30 09:56:22;;;;;;;9.85;3.47;;;28.10;45.10;;;;;;5069199;28;20254;-69
2023/04/30 09:59:13;;;;;;;4.40;2.75;;;28.20;44.90;;;;;;5086774;28;20260;-69
2023/04/30 10:02:05;;;;;;;8.57;3.22;;;28.20;45.30;;;;;;5086151;28;20847;-71
2023/04/30 10:04:58;;;;;;;4.05;2.50;;;28.50;43.70;;;;;;5083590;28;20219;-70
2023/04/30 10:07:46;;;;;;;8.38;3.00;;;28.60;43.30;;;;;;5078687;28;20211;-69
2023/04/30 10:10:38;;;;;;;6.22;3.10;;;28.30;43.80;;;;;;5076504;28;20235;-69
2023/04/30 10:13:30;;;;;;;6.85;2.60;;;29.00;44.10;;;;;;5102673;27;20231;-70
2023/04/30 10:16:30;;;;;;;6.40;2.90;;;29.10;44.60;;;;;;5080852;28;20218;-71
2023/04/30 10:19:24;;;;;;;4.47;2.50;;;29.60;43.50;;;;;;5069183;28;22580;-71
2023/04/30 10:22:13;;;;;;;5.40;2.92;;;29.70;43.50;;;;;;5078181;28;20239;-69
2023/04/30 10:25:03;;;;;;;3.42;2.42;;;29.50;42.20;;;;;;5084720;28;20280;-69
2023/04/30 10:27:52;;;;;;;5.88;2.95;;;30.40;41.40;;;;;;5074121;28;20212;-70
2023/04/30 10:30:42;;;;;;;4.70;2.50;;;31.00;41.90;;;;;;5099194;28;20234;-69
2023/04/30 10:33:38;;;;;;;5.63;2.78;;;31.30;41.80;;;;;;5086082;28;20300;-69
2023/04/30 10:36:37;;;;;;;4.18;2.80;;;31.30;40.20;;;;;;5073650;28;20225;-70
2023/04/30 10:39:27;;;;;;;4.65;2.55;;;31.30;39.80;;;;;;5082335;28;20249;-69
2023/04/30 10:42:17;;;;;;;4.88;2.22;;;30.90;39.30;;;;;;5081297;28;20723;-71
2023/04/30 10:45:11;;;;;;;5.78;2.20;;;31.00;40.00;;;;;;5067872;28;20239;-70
2023/04/30 10:48:02;;;;;;;5.30;2.13;;;31.20;39.60;;;;;;5070042;28;20264;-71
2023/04/30 10:50:52;;;;;;;4.00;2.53;;;31.90;39.10;;;;;;5069987;28;20227;-70
2023/04/30 10:53:44;;;;;;;7.13;2.50;;;31.50;38.90;;;;;;5074567;28;20218;-71
2023/04/30 10:56:34;;;;;;;5.95;2.08;;;31.50;39.70;;;;;;5076271;28;20227;-70
2023/04/30 10:59:23;;;;;;;5.28;3.22;;;32.10;39.20;;;;;;5082017;28;20263;-71
2023/04/30 11:02:12;;;;;;;6.93;2.50;;;31.70;39.30;;;;;;5069795;28;20227;-72
2023/04/30 11:05:13;;;;;;;6.30;2.28;;;32.10;39.20;;;;;;5078035;28;20228;-71
2023/04/30 11:08:02;;;;;;;6.22;2.35;;;32.50;39.10;;;;;;5079793;28;20211;-71
2023/04/30 11:11:00;;;;;;;3.42;2.10;;;32.90;38.80;;;;;;5073673;28;20219;-70
2023/04/30 11:13:59;;;;;;;4.57;1.98;;;32.70;37.20;;;;;;5067036;28;20726;-70
2023/04/30 11:16:50;;;;;;;4.65;1.75;;;31.90;37.30;;;;;;5068812;28;20728;-71
2023/04/30 11:19:48;;;;;;;4.10;1.90;;;31.60;37.70;;;;;;5088285;28;20218;-71
2023/04/30 11:22:39;;;;;;;4.05;2.00;;;33.30;37.30;;;;;;5071608;28;20223;-71
2023/04/30 11:25:40;;;;;;;4.60;2.28;;;32.40;35.40;;;;;;5075557;28;20232;-70
2023/04/30 11:28:33;;;;;;;5.90;2.03;;;32.40;35.90;;;;;;5077578;28;20898;-70
2023/04/30 11:31:22;;;;;;;3.38;1.95;;;33.00;35.90;;;;;;5081778;28;20219;-71
2023/04/30 11:34:12;;;;;;;4.13;2.30;;;35.20;35.80;;;;;;5077224;28;20264;-70
2023/04/30 11:37:03;;;;;;;3.30;1.98;;;35.60;34.90;;;;;;5082416;28;20230;-70
2023/04/30 11:39:52;;;;;;;5.43;2.10;;;35.60;36.10;;;;;;5079370;28;20227;-71
2023/04/30 11:42:45;;;;;;;2.85;1.80;;;36.20;35.60;;;;;;5073225;28;20555;-71
2023/04/30 11:45:35;;;;;;;5.57;1.98;;;36.90;34.40;;;;;;5083526;28;20245;-70
2023/04/30 11:48:24;;;;;;;3.08;1.90;;;35.70;33.90;;;;;;5075945;28;20222;-70
2023/04/30 11:51:17;;;;;;;3.53;1.73;;;34.40;34.50;;;;;;5082152;28;20262;-71
2023/04/30 11:54:09;;;;;;;2.42;1.83;;;36.10;33.70;;;;;;5081521;28;20255;-71
2023/04/30 11:57:02;;;;;;;4.03;1.85;;;37.60;33.40;;;;;;5080934;28;20736;-70
2023/04/30 11:59:52;;;;;;;2.55;1.70;;;38.50;33.00;;;;;;5075097;28;20215;-68
2023/04/30 12:02:43;;;;;;;3.75;2.13;;;38.70;32.10;;;;;;5083891;28;20280;-71
2023/04/30 12:05:32;;;;;;;6.43;2.25;;;38.10;31.90;;;;;;5099831;27;20334;-70
2023/04/30 12:08:21;;;;;;;4.18;1.98;;;38.20;31.50;;;;;;5084683;28;20223;-70
2023/04/30 12:11:24;;;;;;;3.50;2.03;;;37.20;30.50;;;;;;5073587;28;20219;-70
2023/04/30 12:14:14;;;;;;;3.55;1.85;;;37.30;30.80;;;;;;5070882;28;20233;-70
2023/04/30 12:17:04;;;;;;;4.63;2.00;;;37.60;31.40;;;;;;5064145;28;20595;-71
2023/04/30 12:20:05;;;;;;;4.53;1.80;;;38.00;30.20;;;;;;5077856;28;20238;-71
2023/04/30 12:22:54;;;;;;;4.63;1.80;;;37.80;31.10;;;;;;5061904;28;20354;-70
2023/04/30 12:25:43;;;;;;;3.85;2.00;;;31.40;33.10;;;;;;5070512;28;20313;-70
2023/04/30 12:28:35;;;;;;;3.15;2.10;;;28.40;36.00;;;;;;5055837;28;20245;-71
2023/04/30 12:31:24;;;;;;;5.32;2.28;;;;;;;;;;5083351;27;20239;-69
2023/04/30 12:34:14;;;;;;;6.22;2.30;;;24.30;39.80;;;;;;5074635;28;20903;-71
2023/04/30 12:37:06;;;;;;;3.25;1.65;;;22.80;41.80;;;;;;5069288;28;20215;-71
2023/04/30 12:39:56;;;;;;;6.60;1.92;;;22.60;44.50;;;;;;5080163;28;20222;-70
2023/04/30 12:42:46;;;;;;;5.03;2.20;;;22.60;44.50;;;;;;5073809;28;20222;-71
2023/04/30 12:45:46;;;;;;;3.28;1.98;;;22.00;44.70;;;;;;5065064;28;20224;-70
2023/04/30 12:48:44;;;;;;;4.35;1.73;;;22.10;45.10;;;;;;5064252;28;20226;-70
2023/04/30 12:51:34;;;;;;;5.15;1.90;;;;;;;;;;5069417;28;20708;-70
2023/04/30 12:54:30;;;;;;;3.45;1.77;;;20.80;43.10;;;;;;5067155;28;20250;-70
2023/04/30 12:57:20;;;;;;;5.35;1.88;;;20.20;45.60;;;;;;5080253;28;20354;-70
2023/04/30 13:00:11;;;;;;;4.45;1.92;;;20.40;47.10;;;;;;5069355;28;20225;-70
2023/04/30 13:03:00;;;;;;;2.83;1.80;;;20.20;48.00;;;;;;5073465;28;20248;-70
2023/04/30 13:05:52;;;;;;;5.50;2.30;;;20.10;48.10;;;;;;5071637;28;20223;-70
2023/04/30 13:08:42;;;;;;;5.13;1.70;;;19.80;48.00;;;;;;5069104;28;20379;-69
2023/04/30 13:11:49;;;;;;;5.57;1.70;;;19.70;49.70;;;;;;5070921;28;20260;-70
2023/04/30 13:14:38;;;;;;;3.40;2.25;;;19.60;50.20;;;;;;5068181;28;20300;-70
2023/04/30 13:17:28;;;;;;;4.93;1.83;;;19.70;50.00;;;;;;5083922;28;20219;-69
2023/04/30 13:20:17;;;;;;;5.63;2.10;;;19.90;48.60;;;;;;5084665;28;20216;-68
2023/04/30 13:23:06;;;;;;;3.78;2.08;;;19.80;49.70;;;;;;5071423;28;20230;-68
2023/04/30 13:25:55;;;;;;;6.45;2.00;;;19.70;50.00;;;;;;5075669;28;20583;-69
2023/04/30 13:28:45;;;;;;;5.03;2.00;;;19.70;48.90;;;;;;5072182;28;20705;-69
2023/04/30 13:31:34;;;;;;;3.53;1.80;;;19.80;49.70;;;;;;5072740;28;20223;-71
2023/04/30 13:34:23;;;;;;;2.88;1.50;;;19.50;50.70;;;;;;5062468;28;20303;-69
2023/04/30 13:37:12;;;;;;;4.90;2.05;;;19.40;50.10;;;;;;5076446;28;20330;-70
2023/04/30 13:40:02;;;;;;;5.30;2.05;;;19.40;51.00;;;;;;5078020;28;20226;-69
2023/04/30 13:42:51;;;;;;;4.82;1.90;;;19.30;50.50;;;;;;5103198;27;20714;-68
2023/04/30 13:45:41;;;;;;;3.83;1.80;;;19.30;50.90;;;;;;5081352;28;20235;-68
2023/04/30 13:48:30;;;;;;;4.40;1.65;;;19.40;50.50;;;;;;5078071;28;20225;-70
2023/04/30 13:51:24;;;;;;;5.25;2.40;;;19.20;51.10;;;;;;5070615;28;20253;-68
2023/04/30 13:54:12;;;;;;;3.40;1.80;;;19.20;51.40;;;;;;5073429;28;20224;-67
2023/04/30 13:57:02;;;;;;;3.55;1.95;;;19.10;51.80;;;;;;5092365;27;20235;-69
2023/04/30 13:59:51;;;;;;;3.95;1.98;;;19.10;52.20;;;;;;5073447;28;20263;-68
2023/04/30 14:02:41;;;;;;;3.85;1.73;;;18.90;52.10;;;;;;5073920;28;20242;-70
2023/04/30 14:05:31;;;;;;;4.55;1.92;;;18.90;52.20;;;;;;5075810;28;20250;-68
2023/04/30 14:08:19;;;;;;;3.47;1.77;;;18.60;50.90;;;;;;5077675;27;20284;-68
2023/04/30 14:11:11;;;;;;;4.38;2.03;;;18.20;51.10;;;;;;5077394;28;20690;-68
2023/04/30 14:14:00;;;;;;;4.82;2.22;;;18.10;51.50;;;;;;5070477;28;20239;-67
2023/04/30 14:16:49;;;;;;;3.55;1.75;;;18.00;52.20;;;;;;5076346;27;20301;-67
2023/04/30 14:19:40;;;;;;;6.63;2.17;;;18.10;52.00;;;;;;5084462;28;20223;-67
2023/04/30 14:22:29;;;;;;;3.00;1.70;;;18.00;51.50;;;;;;5073894;27;20228;-67
2023/04/30 14:25:18;;;;;;;5.07;1.80;;;17.40;51.60;;;;;;5076502;28;20226;-69
2023/04/30 14:28:06;;;;;;;4.13;1.50;;;17.20;53.50;;;;;;5072503;28;20228;-69
2023/04/30 14:30:56;;;;;;;5.40;2.03;;;17.60;53.50;;;;;;5098654;27;20328;-67
2023/04/30 14:33:45;;;;;;;4.65;1.80;;;17.80;52.70;;;;;;5076445;28;20228;-68
2023/04/30 14:36:37;;;;;;;8.48;1.60;;;17.90;52.00;;;;;;5078693;27;20290;-67
2023/04/30 14:39:26;;;;;;;6.93;1.95;;;17.90;52.10;;;;;;5090052;28;20309;-68
2023/04/30 14:42:16;;;;;;;3.65;1.80;;;18.10;51.70;;;;;;5084184;28;20784;-69